Time,TemperatureF,DewpointF,PressureIn,WindDirection,WindDirectionDegrees,WindSpeedMPH,WindSpeedGustMPH,Humidity,HourlyPrecipIn,Conditions,Clouds,dailyrainin,SoftwareType,DateUTC
2013-06-12 00:04:00,70.2,69.6,29.17,NE,45,0.0,0.0,98,0.00,,,0.00,meteohub,2013-06-12 10:04:00,
2013-06-12 00:09:00,70.2,69.6,29.17,NE,45,0.0,0.0,98,0.00,,,0.00,meteohub,2013-06-12 10:09:00,
2013-06-12 00:14:00,70.0,69.4,29.17,NE,45,0.0,0.0,98,0.00,,,0.00,meteohub,2013-06-12 10:14:00,
2013-06-12 00:19:00,70.0,69.4,29.17,NE,45,0.0,0.0,98,0.00,,,0.00,meteohub,2013-06-12 10:19:00,
2013-06-12 00:24:00,70.0,69.4,29.17,NE,45,0.0,0.0,98,0.00,,,0.00,meteohub,2013-06-12 10:24:00,
2013-06-12 00:29:00,69.8,69.4,29.17,NE,45,0.0,0.0,99,0.00,,,0.00,meteohub,2013-06-12 10:29:00,
2013-06-12 00:34:00,69.6,69.3,29.17,NE,45,0.0,0.0,99,0.00,,,0.00,meteohub,2013-06-12 10:34:00,
2013-06-12 00:39:00,69.6,69.3,29.17,NE,45,0.0,0.0,99,0.00,,,0.00,meteohub,2013-06-12 10:39:00,
2013-06-12 00:44:00,69.4,69.1,29.17,NE,45,0.0,0.0,99,0.00,,,0.00,meteohub,2013-06-12 10:44:00,
2013-06-12 00:49:00,69.4,69.1,29.16,NE,45,0.0,0.0,99,0.00,,,0.00,meteohub,2013-06-12 10:49:00,
2013-06-12 00:54:00,69.4,69.1,29.16,NE,45,0.0,0.0,99,0.00,,,0.00,meteohub,2013-06-12 10:54:00,
2013-06-12 00:59:00,69.3,68.9,29.16,NE,45,0.0,0.0,99,0.00,,,0.00,meteohub,2013-06-12 10:59:00,
2013-06-12 01:04:00,69.3,68.9,29.16,NE,45,0.0,0.0,99,0.00,,,0.00,meteohub,2013-06-12 11:04:00,
2013-06-12 01:09:00,69.3,68.9,29.16,NE,45,0.0,0.0,99,0.00,,,0.00,meteohub,2013-06-12 11:09:00,
2013-06-12 01:14:00,69.1,68.7,29.16,NE,45,0.0,0.0,99,0.00,,,0.00,meteohub,2013-06-12 11:14:00,
2013-06-12 01:19:00,69.1,68.7,29.16,NE,45,0.0,0.0,99,0.00,,,0.00,meteohub,2013-06-12 11:19:00,
2013-06-12 01:24:00,68.9,68.5,29.16,NE,45,0.0,0.0,99,0.00,,,0.00,meteohub,2013-06-12 11:24:00,
2013-06-12 01:29:00,68.7,68.4,29.16,NE,45,0.0,0.0,99,0.00,,,0.00,meteohub,2013-06-12 11:29:00,
2013-06-12 01:34:00,68.7,68.4,29.16,NE,45,0.0,0.0,99,0.00,,,0.00,meteohub,2013-06-12 11:34:00,
2013-06-12 01:39:00,68.5,68.2,29.16,NE,45,0.0,0.0,99,0.00,,,0.00,meteohub,2013-06-12 11:39:00,
2013-06-12 01:44:00,68.4,68.0,29.16,NE,45,0.0,0.0,99,0.00,,,0.00,meteohub,2013-06-12 11:44:00,
2013-06-12 01:49:00,68.4,68.0,29.16,NE,45,0.0,0.0,99,0.00,,,0.00,meteohub,2013-06-12 11:49:00,
2013-06-12 01:54:00,68.2,67.8,29.16,NE,45,0.0,0.0,99,0.00,,,0.00,meteohub,2013-06-12 11:54:00,
2013-06-12 01:59:00,68.2,67.8,29.16,NE,45,0.0,0.0,99,0.00,,,0.00,meteohub,2013-06-12 11:59:00,
2013-06-12 02:04:00,68.2,67.8,29.16,NE,45,0.0,0.0,99,0.00,,,0.00,meteohub,2013-06-12 12:04:00,
2013-06-12 02:09:00,68.2,67.8,29.16,NE,45,0.0,0.0,99,0.00,,,0.00,meteohub,2013-06-12 12:09:00,
2013-06-12 02:14:00,68.2,67.8,29.15,NE,45,0.0,0.0,99,0.00,,,0.00,meteohub,2013-06-12 12:14:00,
2013-06-12 02:19:00,68.4,68.0,29.15,NE,45,0.0,0.0,99,0.00,,,0.00,meteohub,2013-06-12 12:19:00,
2013-06-12 02:25:00,68.4,68.0,29.15,NE,45,0.0,0.0,99,0.00,,,0.00,meteohub,2013-06-12 12:25:00,
2013-06-12 02:30:00,68.4,68.0,29.15,NE,45,0.0,0.0,99,0.00,,,0.00,meteohub,2013-06-12 12:30:00,
2013-06-12 02:35:00,68.4,68.0,29.15,NE,45,0.0,0.0,99,0.00,,,0.00,meteohub,2013-06-12 12:35:00,
2013-06-12 02:40:00,68.4,68.0,29.15,NE,45,0.0,0.0,99,0.00,,,0.00,meteohub,2013-06-12 12:40:00,
2013-06-12 02:45:00,68.4,68.0,29.15,NE,45,0.0,0.0,99,0.00,,,0.00,meteohub,2013-06-12 12:45:00,
2013-06-12 02:50:00,68.4,68.0,29.14,NE,45,0.0,0.0,99,0.00,,,0.00,meteohub,2013-06-12 12:50:00,
2013-06-12 02:55:00,68.4,68.0,29.15,NE,45,0.0,0.0,99,0.00,,,0.00,meteohub,2013-06-12 12:55:00,
2013-06-12 03:00:00,68.4,68.0,29.15,NE,45,0.0,0.0,99,0.00,,,0.00,meteohub,2013-06-12 13:00:00,
2013-06-12 03:05:00,68.4,68.0,29.15,NE,45,0.0,0.0,99,0.00,,,0.00,meteohub,2013-06-12 13:05:00,
2013-06-12 03:10:00,68.4,68.0,29.15,NE,45,0.0,0.0,99,0.00,,,0.00,meteohub,2013-06-12 13:10:00,
2013-06-12 03:15:00,68.4,68.0,29.15,NE,45,0.0,0.0,99,0.00,,,0.00,meteohub,2013-06-12 13:15:00,
2013-06-12 03:20:00,68.4,68.0,29.15,NE,45,0.0,0.0,99,0.00,,,0.00,meteohub,2013-06-12 13:20:00,
2013-06-12 03:25:00,68.4,68.0,29.15,NE,45,0.0,0.0,99,0.00,,,0.00,meteohub,2013-06-12 13:25:00,
2013-06-12 03:30:00,68.4,68.0,29.15,NE,45,0.0,0.0,99,0.00,,,0.00,meteohub,2013-06-12 13:30:00,
2013-06-12 03:35:00,68.4,68.0,29.15,NE,45,0.0,0.0,99,0.00,,,0.00,meteohub,2013-06-12 13:35:00,
2013-06-12 03:40:00,68.4,68.0,29.15,NE,45,0.0,0.0,99,0.00,,,0.00,meteohub,2013-06-12 13:40:00,
2013-06-12 03:45:00,68.4,68.0,29.15,NE,45,0.0,0.0,99,0.00,,,0.00,meteohub,2013-06-12 13:45:00,
2013-06-12 03:50:00,68.4,68.0,29.15,NE,45,0.0,0.0,99,0.00,,,0.00,meteohub,2013-06-12 13:50:00,
2013-06-12 03:55:00,68.4,68.0,29.15,NE,45,0.0,0.0,99,0.00,,,0.00,meteohub,2013-06-12 13:55:00,
2013-06-12 04:00:00,68.4,68.0,29.16,NE,45,0.0,0.0,99,0.00,,,0.00,meteohub,2013-06-12 14:00:00,
2013-06-12 04:05:00,68.4,68.0,29.15,NE,45,0.0,0.0,99,0.00,,,0.00,meteohub,2013-06-12 14:05:00,
2013-06-12 04:10:00,68.4,68.0,29.16,NE,45,0.0,0.0,99,0.00,,,0.00,meteohub,2013-06-12 14:10:00,
2013-06-12 04:15:00,68.4,68.0,29.16,NE,45,0.0,0.0,99,0.00,,,0.00,meteohub,2013-06-12 14:15:00,
2013-06-12 04:20:00,68.4,68.0,29.15,NE,45,0.0,0.0,99,0.00,,,0.00,meteohub,2013-06-12 14:20:00,
2013-06-12 04:25:00,68.4,68.0,29.16,NE,45,0.0,0.0,99,0.00,,,0.00,meteohub,2013-06-12 14:25:00,
2013-06-12 04:30:00,68.4,68.0,29.16,NE,45,0.0,0.0,99,0.00,,,0.00,meteohub,2013-06-12 14:30:00,
2013-06-12 04:35:00,68.4,68.0,29.16,NE,45,0.0,0.0,99,0.00,,,0.00,meteohub,2013-06-12 14:35:00,
2013-06-12 04:40:00,68.4,68.0,29.16,NE,45,0.0,0.0,99,0.00,,,0.00,meteohub,2013-06-12 14:40:00,
2013-06-12 04:45:00,68.4,68.0,29.16,NE,45,0.0,0.0,99,0.00,,,0.00,meteohub,2013-06-12 14:45:00,
2013-06-12 04:50:00,68.2,67.8,29.16,NE,45,0.0,0.0,99,0.00,,,0.00,meteohub,2013-06-12 14:50:00,
2013-06-12 04:55:00,68.2,67.8,29.16,NE,45,0.0,0.0,99,0.00,,,0.00,meteohub,2013-06-12 14:55:00,
2013-06-12 05:00:00,68.2,67.8,29.16,NE,45,0.0,0.0,99,0.00,,,0.00,meteohub,2013-06-12 15:00:00,
2013-06-12 05:05:00,68.0,67.6,29.16,NE,45,0.0,0.0,99,0.00,,,0.00,meteohub,2013-06-12 15:05:00,
2013-06-12 05:10:00,68.0,67.6,29.16,NE,45,0.0,0.0,99,0.00,,,0.00,meteohub,2013-06-12 15:10:00,
2013-06-12 05:15:00,68.0,67.6,29.16,NE,45,0.0,0.0,99,0.00,,,0.00,meteohub,2013-06-12 15:15:00,
2013-06-12 05:20:00,68.0,67.6,29.16,NE,45,0.0,0.0,99,0.00,,,0.00,meteohub,2013-06-12 15:20:00,
2013-06-12 05:25:00,68.0,67.6,29.16,NE,45,0.0,0.0,99,0.00,,,0.00,meteohub,2013-06-12 15:25:00,
2013-06-12 05:30:00,68.0,67.6,29.16,NE,45,0.0,0.0,99,0.00,,,0.00,meteohub,2013-06-12 15:30:00,
2013-06-12 05:35:00,68.0,67.6,29.16,NE,45,0.0,0.0,99,0.00,,,0.00,meteohub,2013-06-12 15:35:00,
2013-06-12 05:40:00,68.0,67.6,29.16,NE,45,0.0,0.0,99,0.00,,,0.00,meteohub,2013-06-12 15:40:00,
2013-06-12 05:45:00,68.0,67.6,29.16,NE,45,0.0,0.0,99,0.00,,,0.00,meteohub,2013-06-12 15:45:00,
2013-06-12 05:50:00,68.0,67.6,29.17,NE,45,0.0,0.0,99,0.00,,,0.00,meteohub,2013-06-12 15:50:00,
2013-06-12 05:55:00,68.0,67.6,29.16,NE,45,0.0,0.0,99,0.00,,,0.00,meteohub,2013-06-12 15:55:00,
2013-06-12 06:00:00,68.0,67.6,29.16,East,90,3.0,0.0,99,0.00,,,0.00,meteohub,2013-06-12 16:00:00,
2013-06-12 06:05:00,68.0,67.5,29.17,East,90,3.0,4.0,98,0.00,,,0.00,meteohub,2013-06-12 16:05:00,
2013-06-12 06:10:00,68.4,66.0,29.17,NE,45,0.0,4.0,92,0.00,,,0.00,meteohub,2013-06-12 16:10:00,
2013-06-12 06:16:00,68.5,65.1,29.17,East,90,1.0,4.0,89,0.00,,,0.00,meteohub,2013-06-12 16:16:00,
2013-06-12 06:21:00,68.5,64.8,29.18,NE,45,2.0,4.0,88,0.00,,,0.00,meteohub,2013-06-12 16:21:00,
2013-06-12 06:26:00,68.5,64.2,29.18,East,90,4.0,4.0,86,0.00,,,0.00,meteohub,2013-06-12 16:26:00,
2013-06-12 06:31:00,68.7,64.0,29.18,East,90,2.0,4.0,85,0.00,,,0.00,meteohub,2013-06-12 16:31:00,
2013-06-12 06:36:00,68.9,64.2,29.18,East,90,2.0,4.0,85,0.00,,,0.00,meteohub,2013-06-12 16:36:00,
2013-06-12 06:41:00,69.1,64.0,29.18,NE,45,2.0,4.0,84,0.00,,,0.00,meteohub,2013-06-12 16:41:00,
2013-06-12 06:46:00,69.3,64.2,29.18,SE,135,1.0,3.0,84,0.00,,,0.00,meteohub,2013-06-12 16:46:00,
2013-06-12 06:51:00,69.4,64.4,29.18,NE,45,2.0,3.0,84,0.00,,,0.00,meteohub,2013-06-12 16:51:00,
2013-06-12 06:56:00,69.6,64.2,29.19,NE,45,0.0,3.0,83,0.00,,,0.00,meteohub,2013-06-12 16:56:00,
2013-06-12 07:01:00,69.8,64.4,29.19,East,90,2.0,3.0,83,0.00,,,0.00,meteohub,2013-06-12 17:01:00,
2013-06-12 07:06:00,70.0,64.6,29.19,North,0,0.0,2.0,83,0.00,,,0.00,meteohub,2013-06-12 17:06:00,
2013-06-12 07:11:00,70.3,64.9,29.19,North,0,0.0,2.0,83,0.00,,,0.00,meteohub,2013-06-12 17:11:00,
2013-06-12 07:16:00,70.7,64.9,29.19,North,0,0.0,2.0,82,0.00,,,0.00,meteohub,2013-06-12 17:16:00,
2013-06-12 07:21:00,70.9,65.5,29.19,East,90,2.0,2.0,83,0.00,,,0.00,meteohub,2013-06-12 17:21:00,
2013-06-12 07:26:00,71.1,65.7,29.19,East,90,2.0,2.0,83,0.00,,,0.00,meteohub,2013-06-12 17:26:00,
2013-06-12 07:31:00,71.4,66.4,29.19,East,90,0.0,2.0,84,0.00,,,0.00,meteohub,2013-06-12 17:31:00,
2013-06-12 07:36:00,72.0,66.6,29.19,East,90,2.0,2.0,83,0.00,,,0.00,meteohub,2013-06-12 17:36:00,
2013-06-12 07:41:00,72.5,67.1,29.19,East,90,0.0,2.0,83,0.00,,,0.00,meteohub,2013-06-12 17:41:00,
2013-06-12 07:46:00,73.2,67.5,29.19,East,90,1.0,2.0,82,0.00,,,0.00,meteohub,2013-06-12 17:46:00,
2013-06-12 07:51:00,73.9,68.2,29.19,East,90,0.0,2.0,82,0.00,,,0.00,meteohub,2013-06-12 17:51:00,
2013-06-12 07:56:00,74.5,68.2,29.19,East,90,2.0,2.0,81,0.00,,,0.00,meteohub,2013-06-12 17:56:00,
2013-06-12 08:01:00,74.7,68.4,29.19,SE,135,0.0,3.0,81,0.00,,,0.00,meteohub,2013-06-12 18:01:00,
2013-06-12 08:06:00,75.0,69.1,29.19,East,90,1.0,3.0,82,0.00,,,0.00,meteohub,2013-06-12 18:06:00,
2013-06-12 08:11:00,75.2,68.5,29.19,SE,135,2.0,3.0,80,0.00,,,0.00,meteohub,2013-06-12 18:11:00,
2013-06-12 08:16:00,75.2,68.2,29.19,North,0,2.0,2.0,79,0.00,,,0.00,meteohub,2013-06-12 18:16:00,
2013-06-12 08:21:00,75.2,67.8,29.19,North,0,0.0,2.0,78,0.00,,,0.00,meteohub,2013-06-12 18:21:00,
2013-06-12 08:26:00,76.1,69.1,29.19,North,0,0.0,2.0,79,0.00,,,0.00,meteohub,2013-06-12 18:26:00,
2013-06-12 08:31:00,76.5,69.1,29.19,North,0,0.0,2.0,78,0.00,,,0.00,meteohub,2013-06-12 18:31:00,
2013-06-12 08:36:00,76.5,69.1,29.19,South,180,0.0,2.0,78,0.00,,,0.00,meteohub,2013-06-12 18:36:00,
2013-06-12 08:41:00,76.3,68.9,29.19,South,180,0.0,2.0,78,0.00,,,0.00,meteohub,2013-06-12 18:41:00,
2013-06-12 08:46:00,76.3,68.2,29.19,South,180,0.0,2.0,76,0.00,,,0.00,meteohub,2013-06-12 18:46:00,
2013-06-12 08:51:00,76.5,68.4,29.19,South,180,0.0,2.0,76,0.00,,,0.00,meteohub,2013-06-12 18:51:00,
2013-06-12 08:56:00,76.3,68.2,29.19,South,180,0.0,2.0,76,0.00,,,0.00,meteohub,2013-06-12 18:56:00,
2013-06-12 09:01:00,76.5,68.7,29.19,South,180,2.0,2.0,77,0.00,,,0.00,meteohub,2013-06-12 19:01:00,
2013-06-12 09:06:00,76.3,68.9,29.19,South,180,0.0,2.0,78,0.00,,,0.00,meteohub,2013-06-12 19:06:00,
2013-06-12 09:11:00,76.5,69.8,29.19,South,180,1.0,2.0,80,0.00,,,0.00,meteohub,2013-06-12 19:11:00,
2013-06-12 09:16:00,76.5,70.2,29.19,South,180,0.0,2.0,81,0.00,,,0.00,meteohub,2013-06-12 19:16:00,
2013-06-12 09:21:00,76.8,70.5,29.20,South,180,2.0,2.0,81,0.00,,,0.00,meteohub,2013-06-12 19:21:00,
2013-06-12 09:26:00,76.8,70.2,29.19,SE,135,3.0,3.0,80,0.00,,,0.00,meteohub,2013-06-12 19:26:00,
2013-06-12 09:31:00,76.5,70.2,29.19,NE,45,1.0,3.0,81,0.00,,,0.00,meteohub,2013-06-12 19:31:00,
2013-06-12 09:36:00,76.8,70.5,29.19,SE,135,2.0,3.0,81,0.00,,,0.00,meteohub,2013-06-12 19:36:00,
2013-06-12 09:41:00,77.2,70.5,29.20,SE,135,4.0,4.0,80,0.00,,,0.00,meteohub,2013-06-12 19:41:00,
2013-06-12 09:46:00,76.8,70.5,29.20,SE,135,2.0,4.0,81,0.00,,,0.00,meteohub,2013-06-12 19:46:00,
2013-06-12 09:51:00,76.3,70.0,29.19,East,90,0.0,4.0,81,0.00,,,0.00,meteohub,2013-06-12 19:51:00,
2013-06-12 09:56:00,76.3,70.0,29.20,SE,135,4.0,4.0,81,0.00,,,0.00,meteohub,2013-06-12 19:56:00,
2013-06-12 10:01:00,76.5,69.8,29.20,East,90,4.0,4.0,80,0.00,,,0.00,meteohub,2013-06-12 20:01:00,
2013-06-12 10:06:00,76.8,70.5,29.20,SE,135,3.0,4.0,81,0.00,,,0.00,meteohub,2013-06-12 20:06:00,
2013-06-12 10:11:00,76.8,69.8,29.20,SE,135,2.0,4.0,79,0.00,,,0.00,meteohub,2013-06-12 20:11:00,
2013-06-12 10:16:00,77.4,70.0,29.20,SE,135,2.0,4.0,78,0.00,,,0.00,meteohub,2013-06-12 20:16:00,
2013-06-12 10:21:00,79.3,70.3,29.20,East,90,4.0,4.0,74,0.00,,,0.00,meteohub,2013-06-12 20:21:00,
2013-06-12 10:26:00,79.9,70.0,29.20,East,90,2.0,5.0,72,0.00,,,0.00,meteohub,2013-06-12 20:26:00,
2013-06-12 10:31:00,80.2,69.1,29.19,SE,135,1.0,5.0,69,0.00,,,0.00,meteohub,2013-06-12 20:31:00,
2013-06-12 10:36:00,81.0,71.1,29.19,West,270,2.0,5.0,72,0.00,,,0.00,meteohub,2013-06-12 20:36:00,
2013-06-12 10:41:00,81.5,71.2,29.19,West,270,3.0,5.0,71,0.00,,,0.00,meteohub,2013-06-12 20:41:00,
2013-06-12 10:46:00,81.7,70.5,29.19,SE,135,4.0,7.0,69,0.00,,,0.00,meteohub,2013-06-12 20:46:00,
2013-06-12 10:51:00,81.7,71.4,29.19,East,90,2.0,7.0,71,0.00,,,0.00,meteohub,2013-06-12 20:51:00,
2013-06-12 10:56:00,82.2,70.5,29.18,South,180,3.0,7.0,68,0.00,,,0.00,meteohub,2013-06-12 20:56:00,
2013-06-12 11:01:00,82.0,70.3,29.18,West,270,3.0,7.0,68,0.00,,,0.00,meteohub,2013-06-12 21:01:00,
2013-06-12 11:06:00,81.3,69.8,29.17,East,90,2.0,6.0,68,0.00,,,0.00,meteohub,2013-06-12 21:06:00,
2013-06-12 11:11:00,81.5,70.3,29.17,East,90,2.0,4.0,69,0.00,,,0.00,meteohub,2013-06-12 21:11:00,
2013-06-12 11:16:00,81.9,71.1,29.17,SE,135,2.0,4.0,70,0.00,,,0.00,meteohub,2013-06-12 21:16:00,
2013-06-12 11:22:00,81.7,70.5,29.17,NW,315,2.0,4.0,69,0.00,,,0.00,meteohub,2013-06-12 21:22:00,
2013-06-12 11:27:00,82.4,70.7,29.17,NW,315,2.0,4.0,68,0.00,,,0.00,meteohub,2013-06-12 21:27:00,
2013-06-12 11:32:00,81.9,70.7,29.16,East,90,5.0,5.0,69,0.00,,,0.00,meteohub,2013-06-12 21:32:00,
2013-06-12 11:37:00,81.7,70.5,29.17,NW,315,2.0,7.0,69,0.00,,,0.00,meteohub,2013-06-12 21:37:00,
2013-06-12 11:42:00,82.4,72.0,29.17,South,180,1.0,7.0,71,0.00,,,0.00,meteohub,2013-06-12 21:42:00,
2013-06-12 11:47:00,82.4,70.7,29.16,South,180,5.0,7.0,68,0.00,,,0.00,meteohub,2013-06-12 21:47:00,
2013-06-12 11:52:00,82.2,71.4,29.16,South,180,4.0,5.0,70,0.00,,,0.00,meteohub,2013-06-12 21:52:00,
2013-06-12 11:57:00,81.9,72.7,29.16,West,270,3.0,8.0,74,0.00,,,0.00,meteohub,2013-06-12 21:57:00,
2013-06-12 12:02:00,81.5,71.2,29.17,West,270,4.0,8.0,71,0.00,,,0.00,meteohub,2013-06-12 22:02:00,
2013-06-12 12:07:00,81.1,70.3,29.17,SE,135,4.0,8.0,70,0.00,,,0.00,meteohub,2013-06-12 22:07:00,
2013-06-12 12:12:00,81.7,71.4,29.16,West,270,4.0,5.0,71,0.00,,,0.00,meteohub,2013-06-12 22:12:00,
2013-06-12 12:17:00,81.1,71.6,29.16,South,180,2.0,5.0,73,0.00,,,0.00,meteohub,2013-06-12 22:17:00,
2013-06-12 12:21:00,81.7,72.1,29.16,East,90,2.0,5.0,73,0.00,,,0.00,meteohub,2013-06-12 22:21:00,
2013-06-12 12:26:00,82.2,72.3,29.16,West,270,3.0,5.0,72,0.00,,,0.00,meteohub,2013-06-12 22:26:00,
2013-06-12 12:32:00,82.0,72.5,29.15,East,90,2.0,5.0,73,0.00,,,0.00,meteohub,2013-06-12 22:32:00,
2013-06-12 12:37:00,82.6,71.8,29.14,East,90,4.0,6.0,70,0.00,,,0.00,meteohub,2013-06-12 22:37:00,
2013-06-12 12:42:00,83.3,72.9,29.15,West,270,1.0,6.0,71,0.00,,,0.00,meteohub,2013-06-12 22:42:00,
2013-06-12 12:47:00,83.1,72.3,29.14,West,270,2.0,6.0,70,0.00,,,0.00,meteohub,2013-06-12 22:47:00,
2013-06-12 12:52:00,83.5,71.4,29.14,SE,135,4.0,6.0,67,0.00,,,0.00,meteohub,2013-06-12 22:52:00,
2013-06-12 12:57:00,83.8,72.5,29.14,SE,135,2.0,6.0,69,0.00,,,0.00,meteohub,2013-06-12 22:57:00,
2013-06-12 13:02:00,84.0,72.3,29.14,NW,315,4.0,5.0,68,0.00,,,0.00,meteohub,2013-06-12 23:02:00,
2013-06-12 13:07:00,83.3,72.1,29.14,East,90,2.0,5.0,69,0.00,,,0.00,meteohub,2013-06-12 23:07:00,
2013-06-12 13:12:00,83.3,73.4,29.13,North,0,3.0,5.0,72,0.00,,,0.00,meteohub,2013-06-12 23:12:00,
2013-06-12 13:17:00,82.8,72.0,29.13,West,270,2.0,7.0,70,0.00,,,0.00,meteohub,2013-06-12 23:17:00,
2013-06-12 13:22:00,82.8,72.9,29.13,East,90,4.0,7.0,72,0.00,,,0.00,meteohub,2013-06-12 23:22:00,
2013-06-12 13:27:00,82.6,72.1,29.14,South,180,5.0,5.0,71,0.00,,,0.00,meteohub,2013-06-12 23:27:00,
2013-06-12 13:32:00,81.9,71.6,29.14,East,90,5.0,5.0,71,0.00,,,0.00,meteohub,2013-06-12 23:32:00,
2013-06-12 13:37:00,81.3,71.4,29.13,SW,225,4.0,7.0,72,0.00,,,0.00,meteohub,2013-06-12 23:37:00,
2013-06-12 13:42:00,80.8,71.8,29.14,SE,135,4.0,7.0,74,0.00,,,0.00,meteohub,2013-06-12 23:42:00,
2013-06-12 13:47:00,79.7,72.7,29.13,SE,135,4.0,7.0,79,0.00,,,0.00,meteohub,2013-06-12 23:47:00,
2013-06-12 13:52:00,79.2,72.5,29.13,South,180,3.0,6.0,80,0.00,,,0.00,meteohub,2013-06-12 23:52:00,
2013-06-12 13:56:00,79.5,72.5,29.13,NNE,23,4.0,6.0,79,0.00,,,0.00,meteohub,2013-06-12 23:56:00,
2013-06-12 14:02:00,79.0,72.3,29.13,SE,135,2.0,6.0,80,0.00,,,0.00,meteohub,2013-06-13 00:02:00,
2013-06-12 14:07:00,79.0,71.6,29.13,SE,135,2.0,5.0,78,0.00,,,0.00,meteohub,2013-06-13 00:07:00,
2013-06-12 14:12:00,78.8,71.1,29.13,SE,135,6.0,6.0,77,0.00,,,0.00,meteohub,2013-06-13 00:12:00,
2013-06-12 14:17:00,78.4,71.1,29.14,South,180,3.0,6.0,78,0.00,,,0.00,meteohub,2013-06-13 00:17:00,
2013-06-12 14:22:00,78.4,70.2,29.14,NW,315,2.0,6.0,76,0.00,,,0.00,meteohub,2013-06-13 00:22:00,
2013-06-12 14:27:00,78.4,70.2,29.13,NW,315,3.0,6.0,76,0.00,,,0.00,meteohub,2013-06-13 00:27:00,
2013-06-12 14:32:00,78.4,70.2,29.14,SE,135,4.0,4.0,76,0.00,,,0.00,meteohub,2013-06-13 00:32:00,
2013-06-12 14:37:00,77.9,70.5,29.14,SE,135,4.0,7.0,78,0.00,,,0.00,meteohub,2013-06-13 00:37:00,
2013-06-12 14:42:00,78.1,70.3,29.13,South,180,4.0,7.0,77,0.00,,,0.00,meteohub,2013-06-13 00:42:00,
2013-06-12 14:47:00,78.1,70.0,29.14,SE,135,2.0,7.0,76,0.00,,,0.00,meteohub,2013-06-13 00:47:00,
2013-06-12 14:52:00,78.1,68.7,29.13,SE,135,2.0,6.0,73,0.00,,,0.00,meteohub,2013-06-13 00:52:00,
2013-06-12 14:57:00,78.3,69.6,29.13,NW,315,1.0,6.0,75,0.00,,,0.00,meteohub,2013-06-13 00:57:00,
2013-06-12 15:02:00,78.4,69.4,29.13,SE,135,2.0,4.0,74,0.00,,,0.00,meteohub,2013-06-13 01:02:00,
2013-06-12 15:07:00,78.4,70.7,29.13,South,180,4.0,4.0,77,0.00,,,0.00,meteohub,2013-06-13 01:07:00,
2013-06-12 15:12:00,77.5,70.5,29.14,South,180,2.0,4.0,79,0.00,,,0.00,meteohub,2013-06-13 01:12:00,
2013-06-12 15:17:00,77.4,70.7,29.13,South,180,1.0,4.0,80,0.00,,,0.00,meteohub,2013-06-13 01:17:00,
2013-06-12 15:22:00,77.2,69.8,29.14,South,180,3.0,4.0,78,0.00,,,0.00,meteohub,2013-06-13 01:22:00,
2013-06-12 15:27:00,77.0,69.6,29.14,SE,135,3.0,4.0,78,0.00,,,0.00,meteohub,2013-06-13 01:27:00,
2013-06-12 15:32:00,76.8,70.2,29.13,SE,135,3.0,4.0,80,0.00,,,0.00,meteohub,2013-06-13 01:32:00,
2013-06-12 15:36:00,76.6,70.0,29.13,South,180,0.0,4.0,80,0.00,,,0.00,meteohub,2013-06-13 01:36:00,
2013-06-12 15:42:00,76.6,71.1,29.13,South,180,3.0,3.0,83,0.00,,,0.00,meteohub,2013-06-13 01:42:00,
2013-06-12 15:47:00,76.5,70.5,29.13,South,180,2.0,5.0,82,0.00,,,0.00,meteohub,2013-06-13 01:47:00,
2013-06-12 15:52:00,76.5,70.9,29.13,SE,135,2.0,5.0,83,0.00,,,0.00,meteohub,2013-06-13 01:52:00,
2013-06-12 15:57:00,76.3,70.3,29.13,SE,135,2.0,5.0,82,0.00,,,0.00,meteohub,2013-06-13 01:57:00,
2013-06-12 16:02:00,75.9,70.3,29.14,SE,135,2.0,3.0,83,0.00,,,0.00,meteohub,2013-06-13 02:02:00,
2013-06-12 16:07:00,75.4,70.5,29.13,South,180,3.0,5.0,85,0.00,,,0.00,meteohub,2013-06-13 02:07:00,
2013-06-12 16:12:00,75.2,70.3,29.13,South,180,2.0,5.0,85,0.00,,,0.00,meteohub,2013-06-13 02:12:00,
2013-06-12 16:17:00,74.8,70.0,29.13,SE,135,4.0,5.0,85,0.00,,,0.00,meteohub,2013-06-13 02:17:00,
2013-06-12 16:22:00,74.3,69.4,29.13,SE,135,4.0,4.0,85,0.00,,,0.00,meteohub,2013-06-13 02:22:00,
2013-06-12 16:27:00,74.1,69.6,29.13,SE,135,4.0,4.0,86,0.00,,,0.00,meteohub,2013-06-13 02:27:00,
2013-06-12 16:32:00,73.9,69.4,29.13,SE,135,3.0,4.0,86,0.00,,,0.00,meteohub,2013-06-13 02:32:00,
2013-06-12 16:37:00,73.6,69.4,29.13,South,180,4.0,6.0,87,0.00,,,0.00,meteohub,2013-06-13 02:37:00,
2013-06-12 16:42:00,73.6,69.4,29.13,South,180,4.0,6.0,87,0.00,,,0.00,meteohub,2013-06-13 02:42:00,
2013-06-12 16:47:00,73.6,69.1,29.13,SE,135,4.0,6.0,86,0.00,,,0.00,meteohub,2013-06-13 02:47:00,
2013-06-12 16:52:00,73.6,69.4,29.13,SE,135,2.0,6.0,87,0.00,,,0.00,meteohub,2013-06-13 02:52:00,
2013-06-12 16:57:00,73.6,69.4,29.13,South,180,3.0,4.0,87,0.00,,,0.00,meteohub,2013-06-13 02:57:00,
2013-06-12 17:01:00,73.6,69.8,29.13,SE,135,3.0,4.0,88,0.00,,,0.00,meteohub,2013-06-13 03:01:00,
2013-06-12 17:07:00,73.8,70.0,29.14,East,90,2.0,4.0,88,0.00,,,0.00,meteohub,2013-06-13 03:07:00,
2013-06-12 17:12:00,73.8,70.0,29.13,SE,135,1.0,3.0,88,0.00,,,0.00,meteohub,2013-06-13 03:12:00,
2013-06-12 17:17:00,73.8,70.0,29.13,SE,135,4.0,4.0,88,0.00,,,0.00,meteohub,2013-06-13 03:17:00,
2013-06-12 17:22:00,73.6,69.8,29.13,SE,135,2.0,4.0,88,0.00,,,0.00,meteohub,2013-06-13 03:22:00,
2013-06-12 17:27:00,73.6,69.8,29.14,SE,135,4.0,4.0,88,0.00,,,0.00,meteohub,2013-06-13 03:27:00,
2013-06-12 17:32:00,73.4,69.6,29.14,East,90,3.0,4.0,88,0.00,,,0.00,meteohub,2013-06-13 03:32:00,
2013-06-12 17:37:00,73.4,69.6,29.14,SE,135,3.0,4.0,88,0.00,,,0.00,meteohub,2013-06-13 03:37:00,
2013-06-12 17:42:00,73.4,69.6,29.14,East,90,3.0,4.0,88,0.00,,,0.00,meteohub,2013-06-13 03:42:00,
2013-06-12 17:47:00,73.2,69.4,29.15,South,180,2.0,4.0,88,0.00,,,0.00,meteohub,2013-06-13 03:47:00,
2013-06-12 17:52:00,73.4,69.6,29.14,South,180,3.0,4.0,88,0.00,,,0.00,meteohub,2013-06-13 03:52:00,
2013-06-12 17:57:00,73.2,69.8,29.14,SE,135,2.0,4.0,89,0.00,,,0.00,meteohub,2013-06-13 03:57:00,
2013-06-12 18:01:00,73.2,69.4,29.14,SE,135,3.0,4.0,88,0.00,,,0.00,meteohub,2013-06-13 04:01:00,
2013-06-12 18:02:00,73.2,69.8,29.15,SE,135,2.0,4.0,89,0.00,,,0.00,meteohub,2013-06-13 04:02:00,
2013-06-12 18:07:00,73.0,69.6,29.14,South,180,2.0,4.0,89,0.00,,,0.00,meteohub,2013-06-13 04:07:00,
2013-06-12 18:12:00,72.9,69.4,29.14,SE,135,4.0,4.0,89,0.00,,,0.00,meteohub,2013-06-13 04:12:00,
2013-06-12 18:17:00,72.9,69.8,29.15,East,90,4.0,4.0,90,0.00,,,0.00,meteohub,2013-06-13 04:17:00,
2013-06-12 18:22:00,72.7,69.6,29.15,West,270,4.0,4.0,90,0.00,,,0.00,meteohub,2013-06-13 04:22:00,
2013-06-12 18:27:00,72.5,69.4,29.16,SE,135,4.0,4.0,90,0.00,,,0.00,meteohub,2013-06-13 04:27:00,
2013-06-12 18:32:00,72.5,69.4,29.16,East,90,3.0,4.0,90,0.00,,,0.00,meteohub,2013-06-13 04:32:00,
2013-06-12 18:37:00,72.3,69.6,29.16,SE,135,3.0,5.0,91,0.00,,,0.00,meteohub,2013-06-13 04:37:00,
2013-06-12 18:42:00,72.1,69.4,29.16,SE,135,4.0,5.0,91,0.00,,,0.00,meteohub,2013-06-13 04:42:00,
2013-06-12 18:47:00,72.0,69.3,29.17,SE,135,4.0,6.0,91,0.00,,,0.00,meteohub,2013-06-13 04:47:00,
2013-06-12 18:52:00,71.8,69.1,29.16,South,180,2.0,6.0,91,0.00,,,0.00,meteohub,2013-06-13 04:52:00,
2013-06-12 18:57:00,71.8,69.3,29.17,SE,135,3.0,6.0,92,0.00,,,0.00,meteohub,2013-06-13 04:57:00,
2013-06-12 19:02:00,71.8,69.3,29.17,South,180,2.0,5.0,92,0.00,,,0.00,meteohub,2013-06-13 05:02:00,
2013-06-12 19:07:00,71.6,69.4,29.17,SE,135,4.0,4.0,93,0.00,,,0.00,meteohub,2013-06-13 05:07:00,
2013-06-12 19:12:00,71.4,69.3,29.17,East,90,2.0,4.0,93,0.00,,,0.00,meteohub,2013-06-13 05:12:00,
2013-06-12 19:17:00,71.4,69.3,29.18,East,90,0.0,4.0,93,0.00,,,0.00,meteohub,2013-06-13 05:17:00,
2013-06-12 19:22:00,71.2,69.1,29.17,East,90,0.0,4.0,93,0.00,,,0.00,meteohub,2013-06-13 05:22:00,
2013-06-12 19:27:00,71.1,69.3,29.18,East,90,0.0,3.0,94,0.00,,,0.00,meteohub,2013-06-13 05:27:00,
2013-06-12 19:32:00,70.9,69.1,29.18,East,90,0.0,0.0,94,0.00,,,0.00,meteohub,2013-06-13 05:32:00,
2013-06-12 19:37:00,70.9,69.4,29.18,East,90,0.0,0.0,95,0.00,,,0.00,meteohub,2013-06-13 05:37:00,
2013-06-12 19:42:00,70.7,69.3,29.18,East,90,0.0,1.0,95,0.00,,,0.00,meteohub,2013-06-13 05:42:00,
2013-06-12 19:47:00,70.7,69.4,29.18,East,90,0.0,1.0,96,0.00,,,0.00,meteohub,2013-06-13 05:47:00,
2013-06-12 19:52:00,70.7,69.4,29.18,SE,135,1.0,1.0,96,0.00,,,0.00,meteohub,2013-06-13 05:52:00,
2013-06-12 19:57:00,70.7,69.4,29.18,East,90,2.0,2.0,96,0.00,,,0.00,meteohub,2013-06-13 05:57:00,
2013-06-12 20:02:00,70.7,69.3,29.18,East,90,1.0,2.0,95,0.00,,,0.00,meteohub,2013-06-13 06:02:00,
2013-06-12 20:07:00,70.5,69.1,29.18,East,90,0.0,2.0,95,0.00,,,0.00,meteohub,2013-06-13 06:07:00,
2013-06-12 20:12:00,70.5,68.7,29.19,SW,225,2.0,2.0,94,0.00,,,0.00,meteohub,2013-06-13 06:12:00,
2013-06-12 20:17:00,70.5,68.7,29.19,East,90,0.0,2.0,94,0.00,,,0.00,meteohub,2013-06-13 06:17:00,
2013-06-12 20:22:00,70.5,69.1,29.19,East,90,2.0,2.0,95,0.00,,,0.00,meteohub,2013-06-13 06:22:00,
2013-06-12 20:27:00,70.3,68.9,29.19,SE,135,0.0,2.0,95,0.00,,,0.00,meteohub,2013-06-13 06:27:00,
2013-06-12 20:32:00,70.3,68.9,29.19,SE,135,0.0,3.0,95,0.00,,,0.00,meteohub,2013-06-13 06:32:00,
2013-06-12 20:37:00,70.3,68.9,29.19,SE,135,0.0,3.0,95,0.00,,,0.00,meteohub,2013-06-13 06:37:00,
2013-06-12 20:42:00,70.2,68.9,29.19,SE,135,0.0,3.0,96,0.00,,,0.00,meteohub,2013-06-13 06:42:00,
2013-06-12 20:47:00,70.0,68.7,29.19,SE,135,0.0,1.0,96,0.00,,,0.00,meteohub,2013-06-13 06:47:00,
2013-06-12 20:52:00,69.8,68.5,29.19,SE,135,0.0,1.0,96,0.00,,,0.00,meteohub,2013-06-13 06:52:00,
2013-06-12 20:57:00,69.6,68.4,29.20,SE,135,0.0,1.0,96,0.00,,,0.00,meteohub,2013-06-13 06:57:00,
2013-06-12 21:02:00,69.6,67.8,29.19,East,90,1.0,0.0,94,0.00,,,0.00,meteohub,2013-06-13 07:02:00,
2013-06-12 21:07:00,69.6,67.5,29.20,East,90,0.0,2.0,93,0.00,,,0.00,meteohub,2013-06-13 07:07:00,
2013-06-12 21:12:00,69.6,67.5,29.20,East,90,0.0,2.0,93,0.00,,,0.00,meteohub,2013-06-13 07:12:00,
2013-06-12 21:17:00,69.4,67.3,29.21,East,90,0.0,2.0,93,0.00,,,0.00,meteohub,2013-06-13 07:17:00,
2013-06-12 21:22:00,69.3,67.1,29.21,East,90,0.0,0.0,93,0.00,,,0.00,meteohub,2013-06-13 07:22:00,
2013-06-12 21:27:00,69.3,67.1,29.21,East,90,0.0,0.0,93,0.00,,,0.00,meteohub,2013-06-13 07:27:00,
2013-06-12 21:32:00,69.3,67.1,29.21,North,0,0.0,0.0,93,0.00,,,0.00,meteohub,2013-06-13 07:32:00,
2013-06-12 21:37:00,69.3,67.1,29.21,North,0,0.0,0.0,93,0.00,,,0.00,meteohub,2013-06-13 07:37:00,
2013-06-12 21:42:00,69.3,67.1,29.21,North,0,0.0,0.0,93,0.00,,,0.00,meteohub,2013-06-13 07:42:00,
2013-06-12 21:47:00,69.3,67.1,29.21,North,0,0.0,0.0,93,0.00,,,0.00,meteohub,2013-06-13 07:47:00,
2013-06-12 21:52:00,69.3,67.1,29.21,North,0,0.0,0.0,93,0.00,,,0.00,meteohub,2013-06-13 07:52:00,
2013-06-12 21:57:00,69.1,66.9,29.22,North,0,0.0,0.0,93,0.00,,,0.00,meteohub,2013-06-13 07:57:00,
2013-06-12 22:02:00,69.3,67.1,29.22,North,0,0.0,0.0,93,0.00,,,0.00,meteohub,2013-06-13 08:02:00,
2013-06-12 22:07:00,69.3,67.1,29.21,North,0,0.0,0.0,93,0.00,,,0.00,meteohub,2013-06-13 08:07:00,
2013-06-12 22:12:00,69.3,67.1,29.22,North,0,0.0,0.0,93,0.00,,,0.00,meteohub,2013-06-13 08:12:00,
2013-06-12 22:17:00,69.3,67.1,29.22,North,0,0.0,0.0,93,0.00,,,0.00,meteohub,2013-06-13 08:17:00,
2013-06-12 22:22:00,69.3,67.1,29.22,North,0,0.0,0.0,93,0.00,,,0.00,meteohub,2013-06-13 08:22:00,
2013-06-12 22:27:00,69.3,67.5,29.22,North,0,0.0,0.0,94,0.00,,,0.00,meteohub,2013-06-13 08:27:00,
2013-06-12 22:32:00,69.3,67.5,29.22,North,0,0.0,0.0,94,0.00,,,0.00,meteohub,2013-06-13 08:32:00,
2013-06-12 22:37:00,69.3,67.5,29.22,North,0,0.0,0.0,94,0.00,,,0.00,meteohub,2013-06-13 08:37:00,
2013-06-12 22:42:00,69.3,67.8,29.22,North,0,0.0,0.0,95,0.00,,,0.00,meteohub,2013-06-13 08:42:00,
2013-06-12 22:47:00,69.3,68.0,29.21,North,0,0.0,0.0,96,0.00,,,0.00,meteohub,2013-06-13 08:47:00,
2013-06-12 22:52:00,69.1,67.8,29.21,North,0,0.0,0.0,96,0.00,,,0.00,meteohub,2013-06-13 08:52:00,
2013-06-12 22:58:00,69.1,67.8,29.22,North,0,0.0,0.0,96,0.00,,,0.00,meteohub,2013-06-13 08:58:00,
2013-06-12 23:03:00,68.9,68.0,29.21,North,0,0.0,0.0,97,0.00,,,0.00,meteohub,2013-06-13 09:03:00,
2013-06-12 23:07:00,68.7,67.8,29.21,North,0,0.0,0.0,97,0.00,,,0.00,meteohub,2013-06-13 09:07:00,
2013-06-12 23:12:00,68.7,67.8,29.21,North,0,0.0,0.0,97,0.00,,,0.00,meteohub,2013-06-13 09:12:00,
2013-06-12 23:17:00,68.4,67.8,29.21,North,0,0.0,0.0,98,0.00,,,0.00,meteohub,2013-06-13 09:17:00,
2013-06-12 23:22:00,68.2,67.8,29.21,North,0,0.0,0.0,99,0.00,,,0.00,meteohub,2013-06-13 09:22:00,
2013-06-12 23:27:00,68.0,67.6,29.20,North,0,0.0,0.0,99,0.00,,,0.00,meteohub,2013-06-13 09:27:00,
2013-06-12 23:32:00,68.0,67.6,29.20,North,0,0.0,0.0,99,0.00,,,0.00,meteohub,2013-06-13 09:32:00,
2013-06-12 23:37:00,67.8,67.5,29.20,North,0,0.0,0.0,99,0.00,,,0.00,meteohub,2013-06-13 09:37:00,
2013-06-12 23:43:00,67.8,67.5,29.21,North,0,0.0,0.0,99,0.00,,,0.00,meteohub,2013-06-13 09:43:00,
2013-06-12 23:48:00,67.8,67.5,29.20,North,0,0.0,0.0,99,0.00,,,0.00,meteohub,2013-06-13 09:48:00,
2013-06-12 23:53:00,67.8,67.5,29.20,North,0,0.0,0.0,99,0.00,,,0.00,meteohub,2013-06-13 09:53:00,
2013-06-12 23:58:00,67.8,67.5,29.20,North,0,0.0,0.0,99,0.00,,,0.00,meteohub,2013-06-13 09:58:00,